»·PEaware :: WAT380 KSNA-KLAS

WAT380 :: KSNA-KLAS

FLIGHT INFORMATION

Flight Status: Arrived
Operator:
Walker Air Transport
More flights by this operator :: More flights under this callsign
Pilot: Spencer M. (27733)
Aircraft: BOEING 737-200
(B732)
More flights by this aircraft type
Origin: KSNA John Wayne-Orange Co
United States
Destination: KLAS McCarran Intl
United States
More flights between these airports :: More routes between these airports
Route: MUSEL8 DAG LARKK1
File this flight plan on PilotEdge
Remarks:
Altitude:
(Current/Filed)
27,000ft
Speed:
(Current/Filed)
430kts
Departed: 06-Apr-21 03:41 PM
Arrived: 06-Apr-21 04:25 PM
Distance/Time
Traveled:
196nm/0:44
Distance/Time
To Go:
Arrived

Flight Plot

Page will automatically refresh every two minutes.

Flight plan parsing failed; only flown route is shown


Map Options




Map Legend


Flown Route
Filed Route
Departure Airport
Arrival Airport
Navaid (VOR, NDB)
Fix

Horizontal Profiles

Position Reports

Time Latitude Longitude Heading Altitude Ground
Speed
06-Apr-21 15:23 33.676070 -117.864345 118 65ft 0kts
06-Apr-21 15:24 33.676070 -117.864345 118 65ft 0kts
06-Apr-21 15:25 33.676070 -117.864345 118 65ft 0kts
06-Apr-21 15:26 33.676070 -117.864345 118 65ft 0kts
06-Apr-21 15:27 33.676070 -117.864345 118 65ft 0kts
06-Apr-21 15:28 33.676070 -117.864345 118 65ft 0kts
06-Apr-21 15:29 33.676070 -117.864345 118 65ft 0kts
06-Apr-21 15:30 33.676070 -117.864345 118 65ft 0kts
06-Apr-21 15:31 33.676070 -117.864345 118 65ft 0kts
06-Apr-21 15:32 33.676098 -117.864946 61 65ft 2kts
06-Apr-21 15:33 33.675846 -117.865229 26 65ft 0kts
06-Apr-21 15:34 33.675846 -117.865229 26 65ft 0kts
06-Apr-21 15:35 33.678072 -117.863947 28 65ft 23kts
06-Apr-21 15:36 33.680699 -117.863135 296 65ft 0kts
06-Apr-21 15:37 33.680699 -117.863135 296 65ft 0kts
06-Apr-21 15:38 33.680699 -117.863135 296 65ft 0kts
06-Apr-21 15:39 33.681127 -117.864142 299 65ft 14kts
06-Apr-21 15:40 33.671802 -117.871300 208 65ft 145kts
06-Apr-21 15:41 33.621478 -117.890404 190 2149ft 235kts
06-Apr-21 15:42 33.601016 -117.958559 280 4953ft 261kts
06-Apr-21 15:43 33.614773 -118.045345 281 7859ft 268kts
06-Apr-21 15:44 33.629241 -118.133527 292 10556ft 267kts
06-Apr-21 15:45 33.695151 -118.144887 23 12842ft 300kts
06-Apr-21 15:46 33.763343 -118.077973 39 15117ft 333kts
06-Apr-21 15:47 33.835334 -118.006523 31 17721ft 346kts
06-Apr-21 15:48 33.913073 -117.935555 30 20126ft 358kts
06-Apr-21 15:49 33.993768 -117.862534 30 22294ft 368kts
06-Apr-21 15:50 34.077001 -117.788263 29 24128ft 377kts
06-Apr-21 15:51 34.149664 -117.690816 41 25589ft 400kts
06-Apr-21 15:52 34.224247 -117.589343 43 26964ft 413kts
06-Apr-21 15:53 34.304338 -117.482094 39 27086ft 447kts
06-Apr-21 15:54 34.394366 -117.371430 39 27078ft 476kts
06-Apr-21 15:55 34.487279 -117.252169 42 27076ft 498kts
06-Apr-21 15:56 34.576681 -117.123869 45 27067ft 489kts
06-Apr-21 15:57 34.660374 -116.998706 44 27079ft 469kts
06-Apr-21 15:58 34.744006 -116.881424 41 27082ft 451kts
06-Apr-21 15:59 34.827317 -116.768189 41 27048ft 452kts
06-Apr-21 16:00 34.909843 -116.651877 42 27024ft 456kts
06-Apr-21 16:01 34.992042 -116.533627 41 27028ft 459kts
06-Apr-21 16:02 35.080255 -116.422621 41 27021ft 457kts
06-Apr-21 16:03 35.159962 -116.316089 39 26606ft 404kts
06-Apr-21 16:04 35.235422 -116.217735 38 24214ft 391kts
06-Apr-21 16:05 35.308343 -116.122957 39 22743ft 377kts
06-Apr-21 16:06 35.377911 -116.030895 40 19923ft 364kts
06-Apr-21 16:07 35.445295 -115.940573 40 18315ft 352kts
06-Apr-21 16:08 35.509055 -115.854372 41 15707ft 335kts
06-Apr-21 16:09 35.570007 -115.773522 41 15031ft 304kts
06-Apr-21 16:10 35.626843 -115.697773 41 13655ft 303kts
06-Apr-21 16:11 35.684230 -115.626975 39 13035ft 278kts
06-Apr-21 16:12 35.741638 -115.561149 37 13048ft 286kts
06-Apr-21 16:13 35.799355 -115.495711 38 13043ft 279kts
06-Apr-21 16:14 35.845305 -115.421851 60 12501ft 267kts
06-Apr-21 16:15 35.875842 -115.340080 62 10587ft 258kts
06-Apr-21 16:16 35.906182 -115.262697 61 8807ft 245kts
06-Apr-21 16:17 35.943608 -115.195408 45 7957ft 224kts
06-Apr-21 16:18 35.983719 -115.147745 38 7056ft 181kts
06-Apr-21 16:19 36.020950 -115.113444 28 5420ft 155kts
06-Apr-21 16:20 36.059463 -115.096305 8 3919ft 146kts
06-Apr-21 16:21 36.097419 -115.093970 356 3500ft 136kts
06-Apr-21 16:22 36.126472 -115.119130 277 3132ft 142kts
06-Apr-21 16:23 36.100649 -115.152355 204 2190ft 145kts
06-Apr-21 16:24 36.079395 -115.164563 205 2161ft 22kts
06-Apr-21 16:25 36.078011 -115.163173 88 2161ft 10kts
06-Apr-21 16:26 36.078064 -115.156473 88 2138ft 28kts

Navigation Log

Ident Type
Flight plan parsing failed, navigation log unavailable